sensor_id;sensor_type;location;lat;lon;timestamp;temperature;humidity
4687;DHT22;2357;47.316;-1.348;2023-03-01T00:02:20;3.70;99.90
4687;DHT22;2357;47.316;-1.348;2023-03-01T00:04:46;3.70;99.90
4687;DHT22;2357;47.316;-1.348;2023-03-01T00:07:12;3.60;99.90
4687;DHT22;2357;47.316;-1.348;2023-03-01T00:09:37;3.60;99.90
4687;DHT22;2357;47.316;-1.348;2023-03-01T00:12:04;3.60;99.90
4687;DHT22;2357;47.316;-1.348;2023-03-01T00:14:29;3.50;99.90
4687;DHT22;2357;47.316;-1.348;2023-03-01T00:16:55;3.40;99.90
4687;DHT22;2357;47.316;-1.348;2023-03-01T00:19:21;3.40;99.90
4687;DHT22;2357;47.316;-1.348;2023-03-01T00:21:47;3.40;99.90
4687;DHT22;2357;47.316;-1.348;2023-03-01T00:24:13;3.40;99.90
4687;DHT22;2357;47.316;-1.348;2023-03-01T00:26:39;3.40;99.90
4687;DHT22;2357;47.316;-1.348;2023-03-01T00:29:05;3.40;99.90
4687;DHT22;2357;47.316;-1.348;2023-03-01T00:31:32;3.40;99.90
4687;DHT22;2357;47.316;-1.348;2023-03-01T00:34:01;3.40;99.90
4687;DHT22;2357;47.316;-1.348;2023-03-01T00:36:29;3.20;99.90
4687;DHT22;2357;47.316;-1.348;2023-03-01T00:38:55;3.30;99.90
4687;DHT22;2357;47.316;-1.348;2023-03-01T00:41:22;3.30;99.90
4687;DHT22;2357;47.316;-1.348;2023-03-01T00:43:49;3.30;99.90
4687;DHT22;2357;47.316;-1.348;2023-03-01T00:46:18;3.20;99.90
4687;DHT22;2357;47.316;-1.348;2023-03-01T00:48:44;3.10;99.90
4687;DHT22;2357;47.316;-1.348;2023-03-01T00:51:13;3.10;99.90
4687;DHT22;2357;47.316;-1.348;2023-03-01T00:53:40;3.10;99.90
4687;DHT22;2357;47.316;-1.348;2023-03-01T00:56:08;3.00;99.90
4687;DHT22;2357;47.316;-1.348;2023-03-01T00:58:34;3.00;99.90
4687;DHT22;2357;47.316;-1.348;2023-03-01T01:01:01;3.10;99.90
4687;DHT22;2357;47.316;-1.348;2023-03-01T01:03:32;3.10;99.90
4687;DHT22;2357;47.316;-1.348;2023-03-01T01:05:58;3.00;99.90
4687;DHT22;2357;47.316;-1.348;2023-03-01T01:08:23;3.00;99.90
4687;DHT22;2357;47.316;-1.348;2023-03-01T01:10:49;2.90;99.90
4687;DHT22;2357;47.316;-1.348;2023-03-01T01:13:14;2.90;99.90
4687;DHT22;2357;47.316;-1.348;2023-03-01T01:15:40;2.90;99.90
4687;DHT22;2357;47.316;-1.348;2023-03-01T01:18:06;2.90;99.90
4687;DHT22;2357;47.316;-1.348;2023-03-01T01:20:32;2.80;99.90
4687;DHT22;2357;47.316;-1.348;2023-03-01T01:22:58;2.80;99.90
4687;DHT22;2357;47.316;-1.348;2023-03-01T01:25:23;2.90;99.90
4687;DHT22;2357;47.316;-1.348;2023-03-01T01:27:50;2.60;99.90
4687;DHT22;2357;47.316;-1.348;2023-03-01T01:30:16;2.80;99.90
4687;DHT22;2357;47.316;-1.348;2023-03-01T01:32:42;2.80;99.90
4687;DHT22;2357;47.316;-1.348;2023-03-01T01:35:08;2.90;99.90
4687;DHT22;2357;47.316;-1.348;2023-03-01T01:37:33;3.00;99.90
4687;DHT22;2357;47.316;-1.348;2023-03-01T01:40:00;3.10;99.90
4687;DHT22;2357;47.316;-1.348;2023-03-01T01:42:27;2.90;99.90
4687;DHT22;2357;47.316;-1.348;2023-03-01T01:48:00;2.90;99.90
4687;DHT22;2357;47.316;-1.348;2023-03-01T01:50:29;2.80;99.90
4687;DHT22;2357;47.316;-1.348;2023-03-01T01:53:06;2.90;99.90
4687;DHT22;2357;47.316;-1.348;2023-03-01T01:55:37;2.90;99.90
4687;DHT22;2357;47.316;-1.348;2023-03-01T01:58:05;3.00;99.90
4687;DHT22;2357;47.316;-1.348;2023-03-01T02:00:32;3.00;99.90
4687;DHT22;2357;47.316;-1.348;2023-03-01T02:03:00;3.00;99.90
4687;DHT22;2357;47.316;-1.348;2023-03-01T02:08:26;3.00;99.90
4687;DHT22;2357;47.316;-1.348;2023-03-01T02:10:53;3.00;99.90
4687;DHT22;2357;47.316;-1.348;2023-03-01T02:13:20;3.10;99.90
4687;DHT22;2357;47.316;-1.348;2023-03-01T02:15:46;3.00;99.90
4687;DHT22;2357;47.316;-1.348;2023-03-01T02:18:14;3.00;99.90
4687;DHT22;2357;47.316;-1.348;2023-03-01T02:20:44;3.10;99.90
4687;DHT22;2357;47.316;-1.348;2023-03-01T02:23:12;3.10;99.90
4687;DHT22;2357;47.316;-1.348;2023-03-01T02:30:50;3.10;99.90
4687;DHT22;2357;47.316;-1.348;2023-03-01T02:33:36;3.20;99.90
4687;DHT22;2357;47.316;-1.348;2023-03-01T02:36:17;3.20;99.90
4687;DHT22;2357;47.316;-1.348;2023-03-01T02:38:44;3.10;99.90
4687;DHT22;2357;47.316;-1.348;2023-03-01T02:41:14;3.10;99.90
4687;DHT22;2357;47.316;-1.348;2023-03-01T02:43:40;3.10;99.90
4687;DHT22;2357;47.316;-1.348;2023-03-01T02:46:17;3.10;99.90
4687;DHT22;2357;47.316;-1.348;2023-03-01T02:48:51;3.20;99.90
4687;DHT22;2357;47.316;-1.348;2023-03-01T02:51:41;3.20;99.90
4687;DHT22;2357;47.316;-1.348;2023-03-01T02:56:35;3.10;99.90
4687;DHT22;2357;47.316;-1.348;2023-03-01T02:59:01;3.00;99.90
4687;DHT22;2357;47.316;-1.348;2023-03-01T03:01:28;2.90;99.90
4687;DHT22;2357;47.316;-1.348;2023-03-01T03:04:14;2.90;99.90
4687;DHT22;2357;47.316;-1.348;2023-03-01T03:06:44;2.90;99.90
4687;DHT22;2357;47.316;-1.348;2023-03-01T03:09:11;2.90;99.90
4687;DHT22;2357;47.316;-1.348;2023-03-01T03:11:37;3.00;99.90
4687;DHT22;2357;47.316;-1.348;2023-03-01T03:14:05;3.00;99.90
4687;DHT22;2357;47.316;-1.348;2023-03-01T03:16:31;3.10;99.90
4687;DHT22;2357;47.316;-1.348;2023-03-01T03:18:56;3.10;99.90
4687;DHT22;2357;47.316;-1.348;2023-03-01T03:21:32;3.20;99.90
4687;DHT22;2357;47.316;-1.348;2023-03-01T03:23:58;3.20;99.90
4687;DHT22;2357;47.316;-1.348;2023-03-01T03:26:24;3.20;99.90
4687;DHT22;2357;47.316;-1.348;2023-03-01T03:28:49;3.20;99.90
4687;DHT22;2357;47.316;-1.348;2023-03-01T03:31:15;3.10;99.90
4687;DHT22;2357;47.316;-1.348;2023-03-01T03:33:40;3.10;99.90
4687;DHT22;2357;47.316;-1.348;2023-03-01T03:36:06;3.00;99.90
4687;DHT22;2357;47.316;-1.348;2023-03-01T03:38:32;3.10;99.90
4687;DHT22;2357;47.316;-1.348;2023-03-01T03:41:06;3.00;99.90
4687;DHT22;2357;47.316;-1.348;2023-03-01T03:43:34;3.00;99.90
4687;DHT22;2357;47.316;-1.348;2023-03-01T03:46:01;3.00;99.90
4687;DHT22;2357;47.316;-1.348;2023-03-01T03:48:34;3.00;99.90
4687;DHT22;2357;47.316;-1.348;2023-03-01T03:51:00;3.00;99.90
4687;DHT22;2357;47.316;-1.348;2023-03-01T03:53:28;3.00;99.90
4687;DHT22;2357;47.316;-1.348;2023-03-01T03:55:54;3.00;99.90
4687;DHT22;2357;47.316;-1.348;2023-03-01T03:58:23;2.90;99.90
4687;DHT22;2357;47.316;-1.348;2023-03-01T04:00:51;2.90;99.90
4687;DHT22;2357;47.316;-1.348;2023-03-01T04:03:17;2.90;99.90
4687;DHT22;2357;47.316;-1.348;2023-03-01T04:05:44;2.90;99.90
4687;DHT22;2357;47.316;-1.348;2023-03-01T04:08:11;2.90;99.90
4687;DHT22;2357;47.316;-1.348;2023-03-01T04:10:45;3.00;99.90
4687;DHT22;2357;47.316;-1.348;2023-03-01T04:13:13;3.00;99.90
4687;DHT22;2357;47.316;-1.348;2023-03-01T04:15:40;3.00;99.90
4687;DHT22;2357;47.316;-1.348;2023-03-01T04:18:06;3.00;99.90
4687;DHT22;2357;47.316;-1.348;2023-03-01T04:20:35;3.00;99.90
4687;DHT22;2357;47.316;-1.348;2023-03-01T04:23:10;3.00;99.90
4687;DHT22;2357;47.316;-1.348;2023-03-01T04:25:58;2.90;99.90
4687;DHT22;2357;47.316;-1.348;2023-03-01T04:30:54;3.00;99.90
4687;DHT22;2357;47.316;-1.348;2023-03-01T04:33:20;2.90;99.90
4687;DHT22;2357;47.316;-1.348;2023-03-01T04:35:47;2.90;99.90
4687;DHT22;2357;47.316;-1.348;2023-03-01T04:38:15;2.90;99.90
4687;DHT22;2357;47.316;-1.348;2023-03-01T04:40:41;2.80;99.90
4687;DHT22;2357;47.316;-1.348;2023-03-01T04:43:09;2.90;99.90
4687;DHT22;2357;47.316;-1.348;2023-03-01T04:45:36;2.80;99.90
4687;DHT22;2357;47.316;-1.348;2023-03-01T04:48:02;2.70;99.90
4687;DHT22;2357;47.316;-1.348;2023-03-01T04:50:28;2.60;99.90
4687;DHT22;2357;47.316;-1.348;2023-03-01T04:52:53;2.60;99.90
4687;DHT22;2357;47.316;-1.348;2023-03-01T04:55:19;2.60;99.90
4687;DHT22;2357;47.316;-1.348;2023-03-01T04:57:45;2.70;99.90
4687;DHT22;2357;47.316;-1.348;2023-03-01T05:00:12;2.70;99.90
4687;DHT22;2357;47.316;-1.348;2023-03-01T05:02:52;2.70;99.90
4687;DHT22;2357;47.316;-1.348;2023-03-01T05:05:27;2.70;99.90
4687;DHT22;2357;47.316;-1.348;2023-03-01T05:07:55;2.60;99.90
4687;DHT22;2357;47.316;-1.348;2023-03-01T05:10:20;2.70;99.90
4687;DHT22;2357;47.316;-1.348;2023-03-01T05:12:46;2.70;99.90
4687;DHT22;2357;47.316;-1.348;2023-03-01T05:15:12;2.70;99.90
4687;DHT22;2357;47.316;-1.348;2023-03-01T05:17:37;2.70;99.90
4687;DHT22;2357;47.316;-1.348;2023-03-01T05:20:03;2.60;99.90
4687;DHT22;2357;47.316;-1.348;2023-03-01T05:22:34;2.60;99.90
4687;DHT22;2357;47.316;-1.348;2023-03-01T05:24:59;2.50;99.90
4687;DHT22;2357;47.316;-1.348;2023-03-01T05:27:25;2.60;99.90
4687;DHT22;2357;47.316;-1.348;2023-03-01T05:29:51;2.60;99.90
4687;DHT22;2357;47.316;-1.348;2023-03-01T05:32:16;2.60;99.90
4687;DHT22;2357;47.316;-1.348;2023-03-01T05:34:42;2.60;99.90
4687;DHT22;2357;47.316;-1.348;2023-03-01T05:37:08;2.60;99.90
4687;DHT22;2357;47.316;-1.348;2023-03-01T05:39:34;2.50;99.90
4687;DHT22;2357;47.316;-1.348;2023-03-01T05:42:01;2.50;99.90
4687;DHT22;2357;47.316;-1.348;2023-03-01T05:44:28;2.50;99.90
4687;DHT22;2357;47.316;-1.348;2023-03-01T05:46:54;2.50;99.90
4687;DHT22;2357;47.316;-1.348;2023-03-01T05:49:21;2.40;99.90
4687;DHT22;2357;47.316;-1.348;2023-03-01T05:51:50;2.40;99.90
4687;DHT22;2357;47.316;-1.348;2023-03-01T05:54:16;2.50;99.90
4687;DHT22;2357;47.316;-1.348;2023-03-01T05:56:42;2.40;99.90
4687;DHT22;2357;47.316;-1.348;2023-03-01T05:59:08;2.40;99.90
4687;DHT22;2357;47.316;-1.348;2023-03-01T06:01:35;2.50;99.90
4687;DHT22;2357;47.316;-1.348;2023-03-01T06:04:02;2.40;99.90
4687;DHT22;2357;47.316;-1.348;2023-03-01T06:06:28;2.40;99.90
4687;DHT22;2357;47.316;-1.348;2023-03-01T06:08:53;2.40;99.90
4687;DHT22;2357;47.316;-1.348;2023-03-01T06:11:20;2.40;99.90
4687;DHT22;2357;47.316;-1.348;2023-03-01T06:13:46;2.40;99.90
4687;DHT22;2357;47.316;-1.348;2023-03-01T06:16:13;2.40;99.90
4687;DHT22;2357;47.316;-1.348;2023-03-01T06:18:39;2.40;99.90
4687;DHT22;2357;47.316;-1.348;2023-03-01T06:21:05;2.30;99.90
4687;DHT22;2357;47.316;-1.348;2023-03-01T06:23:31;2.30;99.90
4687;DHT22;2357;47.316;-1.348;2023-03-01T06:25:57;2.30;99.90
4687;DHT22;2357;47.316;-1.348;2023-03-01T06:28:23;2.30;99.90
4687;DHT22;2357;47.316;-1.348;2023-03-01T06:30:52;2.30;99.90
4687;DHT22;2357;47.316;-1.348;2023-03-01T06:33:19;2.30;99.90
4687;DHT22;2357;47.316;-1.348;2023-03-01T06:35:50;2.30;99.90
4687;DHT22;2357;47.316;-1.348;2023-03-01T06:38:15;2.30;99.90
4687;DHT22;2357;47.316;-1.348;2023-03-01T06:40:44;2.20;99.90
4687;DHT22;2357;47.316;-1.348;2023-03-01T06:43:09;2.20;99.90
4687;DHT22;2357;47.316;-1.348;2023-03-01T06:45:35;2.20;99.90
4687;DHT22;2357;47.316;-1.348;2023-03-01T06:48:05;2.20;99.90
4687;DHT22;2357;47.316;-1.348;2023-03-01T06:50:32;2.20;99.90
4687;DHT22;2357;47.316;-1.348;2023-03-01T06:52:58;2.20;99.90
4687;DHT22;2357;47.316;-1.348;2023-03-01T06:55:24;2.20;99.90
4687;DHT22;2357;47.316;-1.348;2023-03-01T06:58:00;2.10;99.90
4687;DHT22;2357;47.316;-1.348;2023-03-01T07:00:27;2.10;99.90
4687;DHT22;2357;47.316;-1.348;2023-03-01T07:02:53;2.10;99.90
4687;DHT22;2357;47.316;-1.348;2023-03-01T07:05:19;2.10;99.90
4687;DHT22;2357;47.316;-1.348;2023-03-01T07:07:45;2.10;99.90
4687;DHT22;2357;47.316;-1.348;2023-03-01T07:10:11;2.20;99.90
4687;DHT22;2357;47.316;-1.348;2023-03-01T07:12:37;2.10;99.90
4687;DHT22;2357;47.316;-1.348;2023-03-01T07:15:03;2.20;99.90
4687;DHT22;2357;47.316;-1.348;2023-03-01T07:17:29;2.20;99.90
4687;DHT22;2357;47.316;-1.348;2023-03-01T07:19:56;2.20;99.90
4687;DHT22;2357;47.316;-1.348;2023-03-01T07:22:21;2.30;99.90
4687;DHT22;2357;47.316;-1.348;2023-03-01T07:24:47;2.30;99.90
4687;DHT22;2357;47.316;-1.348;2023-03-01T07:27:13;2.40;99.90
4687;DHT22;2357;47.316;-1.348;2023-03-01T07:29:38;2.40;99.90
4687;DHT22;2357;47.316;-1.348;2023-03-01T07:32:05;2.40;99.90
4687;DHT22;2357;47.316;-1.348;2023-03-01T07:34:31;2.40;99.90
4687;DHT22;2357;47.316;-1.348;2023-03-01T07:36:56;2.40;99.90
4687;DHT22;2357;47.316;-1.348;2023-03-01T07:39:22;2.40;99.90
4687;DHT22;2357;47.316;-1.348;2023-03-01T07:41:51;2.50;99.90
4687;DHT22;2357;47.316;-1.348;2023-03-01T07:44:16;2.50;99.90
4687;DHT22;2357;47.316;-1.348;2023-03-01T07:46:43;2.60;99.90
4687;DHT22;2357;47.316;-1.348;2023-03-01T07:49:09;2.50;99.90
4687;DHT22;2357;47.316;-1.348;2023-03-01T07:51:35;2.50;99.90
4687;DHT22;2357;47.316;-1.348;2023-03-01T07:54:01;2.60;99.90
4687;DHT22;2357;47.316;-1.348;2023-03-01T07:56:26;2.60;99.90
4687;DHT22;2357;47.316;-1.348;2023-03-01T07:58:52;2.60;99.90
4687;DHT22;2357;47.316;-1.348;2023-03-01T08:01:19;2.60;99.90
4687;DHT22;2357;47.316;-1.348;2023-03-01T08:03:46;2.60;99.90
4687;DHT22;2357;47.316;-1.348;2023-03-01T08:06:13;2.60;99.90
4687;DHT22;2357;47.316;-1.348;2023-03-01T08:08:39;2.70;99.90
4687;DHT22;2357;47.316;-1.348;2023-03-01T08:11:06;2.70;99.90
4687;DHT22;2357;47.316;-1.348;2023-03-01T08:13:33;2.80;99.90
4687;DHT22;2357;47.316;-1.348;2023-03-01T08:16:07;2.70;99.90
4687;DHT22;2357;47.316;-1.348;2023-03-01T08:18:33;2.80;99.90
4687;DHT22;2357;47.316;-1.348;2023-03-01T08:21:07;2.80;99.90
4687;DHT22;2357;47.316;-1.348;2023-03-01T08:23:34;2.90;99.90
4687;DHT22;2357;47.316;-1.348;2023-03-01T08:26:11;2.90;99.90
4687;DHT22;2357;47.316;-1.348;2023-03-01T08:28:38;3.10;99.90
4687;DHT22;2357;47.316;-1.348;2023-03-01T08:31:13;3.10;99.90
4687;DHT22;2357;47.316;-1.348;2023-03-01T08:33:39;3.10;99.90
4687;DHT22;2357;47.316;-1.348;2023-03-01T08:36:05;3.10;99.90
4687;DHT22;2357;47.316;-1.348;2023-03-01T08:38:32;3.20;99.90
4687;DHT22;2357;47.316;-1.348;2023-03-01T08:41:02;3.10;99.90
4687;DHT22;2357;47.316;-1.348;2023-03-01T08:43:28;3.00;99.90
4687;DHT22;2357;47.316;-1.348;2023-03-01T08:45:54;3.10;99.90
4687;DHT22;2357;47.316;-1.348;2023-03-01T08:48:20;3.20;99.90
4687;DHT22;2357;47.316;-1.348;2023-03-01T08:50:45;3.30;99.90
4687;DHT22;2357;47.316;-1.348;2023-03-01T08:53:11;3.40;99.90
4687;DHT22;2357;47.316;-1.348;2023-03-01T08:55:36;3.40;99.90
4687;DHT22;2357;47.316;-1.348;2023-03-01T08:58:02;3.40;99.90
4687;DHT22;2357;47.316;-1.348;2023-03-01T09:00:27;3.40;99.90
4687;DHT22;2357;47.316;-1.348;2023-03-01T09:02:53;3.50;99.90
4687;DHT22;2357;47.316;-1.348;2023-03-01T09:05:19;3.50;99.90
4687;DHT22;2357;47.316;-1.348;2023-03-01T09:07:44;3.60;99.90
4687;DHT22;2357;47.316;-1.348;2023-03-01T09:10:10;3.60;99.90
4687;DHT22;2357;47.316;-1.348;2023-03-01T09:12:36;3.60;99.90
4687;DHT22;2357;47.316;-1.348;2023-03-01T09:15:01;3.70;99.90
4687;DHT22;2357;47.316;-1.348;2023-03-01T09:17:27;3.70;99.90
4687;DHT22;2357;47.316;-1.348;2023-03-01T09:19:53;3.80;99.90
4687;DHT22;2357;47.316;-1.348;2023-03-01T09:22:18;3.80;99.90
4687;DHT22;2357;47.316;-1.348;2023-03-01T09:24:44;3.80;99.90
4687;DHT22;2357;47.316;-1.348;2023-03-01T09:27:09;3.80;99.90
4687;DHT22;2357;47.316;-1.348;2023-03-01T09:29:37;3.90;99.90
4687;DHT22;2357;47.316;-1.348;2023-03-01T09:32:02;3.80;99.90
4687;DHT22;2357;47.316;-1.348;2023-03-01T09:34:28;3.80;99.90
4687;DHT22;2357;47.316;-1.348;2023-03-01T09:36:54;3.90;99.90
4687;DHT22;2357;47.316;-1.348;2023-03-01T09:39:20;3.90;99.90
4687;DHT22;2357;47.316;-1.348;2023-03-01T09:42:00;3.90;99.90
4687;DHT22;2357;47.316;-1.348;2023-03-01T09:44:51;4.00;99.90
4687;DHT22;2357;47.316;-1.348;2023-03-01T09:47:24;4.10;99.90
4687;DHT22;2357;47.316;-1.348;2023-03-01T09:50:15;4.10;99.90
4687;DHT22;2357;47.316;-1.348;2023-03-01T09:52:47;4.10;99.90
4687;DHT22;2357;47.316;-1.348;2023-03-01T09:55:29;4.10;99.90
4687;DHT22;2357;47.316;-1.348;2023-03-01T09:58:04;4.10;99.90
4687;DHT22;2357;47.316;-1.348;2023-03-01T10:01:02;4.20;99.90
4687;DHT22;2357;47.316;-1.348;2023-03-01T10:03:41;4.40;99.90
4687;DHT22;2357;47.316;-1.348;2023-03-01T10:06:23;4.50;99.90
4687;DHT22;2357;47.316;-1.348;2023-03-01T10:09:13;4.50;99.90
4687;DHT22;2357;47.316;-1.348;2023-03-01T10:11:52;4.50;99.90
4687;DHT22;2357;47.316;-1.348;2023-03-01T10:14:39;4.70;99.90
4687;DHT22;2357;47.316;-1.348;2023-03-01T10:17:32;4.80;99.90
4687;DHT22;2357;47.316;-1.348;2023-03-01T10:20:22;4.80;99.90
4687;DHT22;2357;47.316;-1.348;2023-03-01T10:22:48;4.90;99.90
4687;DHT22;2357;47.316;-1.348;2023-03-01T10:28:17;5.10;99.90
4687;DHT22;2357;47.316;-1.348;2023-03-01T10:30:45;5.10;99.90
4687;DHT22;2357;47.316;-1.348;2023-03-01T10:33:20;5.20;99.90
4687;DHT22;2357;47.316;-1.348;2023-03-01T10:35:47;5.30;99.90
4687;DHT22;2357;47.316;-1.348;2023-03-01T10:38:14;5.40;99.90
4687;DHT22;2357;47.316;-1.348;2023-03-01T10:43:16;5.70;99.90
4687;DHT22;2357;47.316;-1.348;2023-03-01T10:45:41;5.70;99.90
4687;DHT22;2357;47.316;-1.348;2023-03-01T10:48:26;5.80;99.90
4687;DHT22;2357;47.316;-1.348;2023-03-01T10:53:35;5.70;99.90
4687;DHT22;2357;47.316;-1.348;2023-03-01T10:56:12;5.80;99.90
4687;DHT22;2357;47.316;-1.348;2023-03-01T10:59:17;5.90;99.90
4687;DHT22;2357;47.316;-1.348;2023-03-01T11:01:44;5.90;99.90
4687;DHT22;2357;47.316;-1.348;2023-03-01T11:04:12;5.90;99.90
4687;DHT22;2357;47.316;-1.348;2023-03-01T11:06:40;6.00;99.90
4687;DHT22;2357;47.316;-1.348;2023-03-01T11:09:33;6.10;99.90
4687;DHT22;2357;47.316;-1.348;2023-03-01T11:12:14;6.10;99.90
4687;DHT22;2357;47.316;-1.348;2023-03-01T11:15:08;6.30;99.90
4687;DHT22;2357;47.316;-1.348;2023-03-01T11:17:45;6.40;99.90
4687;DHT22;2357;47.316;-1.348;2023-03-01T11:25:20;6.70;99.90
4687;DHT22;2357;47.316;-1.348;2023-03-01T11:27:48;6.80;99.90
4687;DHT22;2357;47.316;-1.348;2023-03-01T11:35:40;6.90;99.90
4687;DHT22;2357;47.316;-1.348;2023-03-01T11:38:27;6.90;99.90
4687;DHT22;2357;47.316;-1.348;2023-03-01T11:41:15;7.00;99.90
4687;DHT22;2357;47.316;-1.348;2023-03-01T11:43:47;7.00;99.90
4687;DHT22;2357;47.316;-1.348;2023-03-01T11:52:15;7.20;99.90
4687;DHT22;2357;47.316;-1.348;2023-03-01T11:55:43;7.20;99.90
4687;DHT22;2357;47.316;-1.348;2023-03-01T12:01:11;7.60;99.90
4687;DHT22;2357;47.316;-1.348;2023-03-01T12:40:33;8.70;99.90
4687;DHT22;2357;47.316;-1.348;2023-03-01T12:50:59;9.40;99.90
4687;DHT22;2357;47.316;-1.348;2023-03-01T12:53:39;9.50;99.90
4687;DHT22;2357;47.316;-1.348;2023-03-01T12:56:10;9.60;99.90
4687;DHT22;2357;47.316;-1.348;2023-03-01T13:04:18;9.60;99.90
4687;DHT22;2357;47.316;-1.348;2023-03-01T13:11:49;9.70;99.90
4687;DHT22;2357;47.316;-1.348;2023-03-01T13:16:47;9.90;99.90
4687;DHT22;2357;47.316;-1.348;2023-03-01T13:19:22;10.10;99.90
4687;DHT22;2357;47.316;-1.348;2023-03-01T13:21:49;10.00;99.90
4687;DHT22;2357;47.316;-1.348;2023-03-01T13:24:29;9.90;99.90
4687;DHT22;2357;47.316;-1.348;2023-03-01T13:35:40;10.40;99.90
4687;DHT22;2357;47.316;-1.348;2023-03-01T13:41:16;10.80;99.90
4687;DHT22;2357;47.316;-1.348;2023-03-01T13:43:44;10.80;99.90
4687;DHT22;2357;47.316;-1.348;2023-03-01T13:46:21;10.70;99.90
4687;DHT22;2357;47.316;-1.348;2023-03-01T13:48:53;11.00;99.90
4687;DHT22;2357;47.316;-1.348;2023-03-01T13:51:24;11.10;99.90
4687;DHT22;2357;47.316;-1.348;2023-03-01T13:53:51;11.00;99.90
4687;DHT22;2357;47.316;-1.348;2023-03-01T13:56:32;10.90;99.90
4687;DHT22;2357;47.316;-1.348;2023-03-01T13:59:02;11.10;99.90
4687;DHT22;2357;47.316;-1.348;2023-03-01T14:01:34;11.10;99.90
4687;DHT22;2357;47.316;-1.348;2023-03-01T14:04:01;11.10;99.90
4687;DHT22;2357;47.316;-1.348;2023-03-01T14:06:32;11.10;99.90
4687;DHT22;2357;47.316;-1.348;2023-03-01T14:09:20;11.30;99.90
4687;DHT22;2357;47.316;-1.348;2023-03-01T14:17:24;11.30;99.90
4687;DHT22;2357;47.316;-1.348;2023-03-01T14:20:07;11.30;99.90
4687;DHT22;2357;47.316;-1.348;2023-03-01T14:22:34;11.40;99.90
4687;DHT22;2357;47.316;-1.348;2023-03-01T14:25:14;11.50;99.90
4687;DHT22;2357;47.316;-1.348;2023-03-01T14:27:42;11.40;99.90
4687;DHT22;2357;47.316;-1.348;2023-03-01T14:30:17;11.60;99.90
4687;DHT22;2357;47.316;-1.348;2023-03-01T14:32:53;11.50;99.90
4687;DHT22;2357;47.316;-1.348;2023-03-01T14:35:24;11.50;99.90
4687;DHT22;2357;47.316;-1.348;2023-03-01T14:37:50;11.50;99.90
4687;DHT22;2357;47.316;-1.348;2023-03-01T14:42:48;11.70;99.90
4687;DHT22;2357;47.316;-1.348;2023-03-01T14:45:14;11.60;99.90
4687;DHT22;2357;47.316;-1.348;2023-03-01T14:47:40;11.70;99.90
4687;DHT22;2357;47.316;-1.348;2023-03-01T14:50:30;11.70;99.90
4687;DHT22;2357;47.316;-1.348;2023-03-01T14:52:59;11.70;99.90
4687;DHT22;2357;47.316;-1.348;2023-03-01T14:55:40;11.60;99.90
4687;DHT22;2357;47.316;-1.348;2023-03-01T14:58:13;11.70;99.90
4687;DHT22;2357;47.316;-1.348;2023-03-01T15:00:50;11.70;99.90
4687;DHT22;2357;47.316;-1.348;2023-03-01T15:03:31;11.90;99.90
4687;DHT22;2357;47.316;-1.348;2023-03-01T15:06:00;12.10;99.90
4687;DHT22;2357;47.316;-1.348;2023-03-01T15:08:26;12.10;99.90
4687;DHT22;2357;47.316;-1.348;2023-03-01T15:13:38;11.80;99.90
4687;DHT22;2357;47.316;-1.348;2023-03-01T15:16:31;12.00;99.90
4687;DHT22;2357;47.316;-1.348;2023-03-01T15:19:07;12.00;99.90
4687;DHT22;2357;47.316;-1.348;2023-03-01T15:21:35;12.10;99.90
4687;DHT22;2357;47.316;-1.348;2023-03-01T15:24:17;12.00;99.90
4687;DHT22;2357;47.316;-1.348;2023-03-01T15:26:50;11.90;99.90
4687;DHT22;2357;47.316;-1.348;2023-03-01T15:29:24;11.60;99.90
4687;DHT22;2357;47.316;-1.348;2023-03-01T15:32:20;11.90;99.90
4687;DHT22;2357;47.316;-1.348;2023-03-01T15:34:48;12.50;99.90
4687;DHT22;2357;47.316;-1.348;2023-03-01T15:40:27;17.70;99.90
4687;DHT22;2357;47.316;-1.348;2023-03-01T15:43:00;18.00;99.90
4687;DHT22;2357;47.316;-1.348;2023-03-01T15:45:28;17.00;99.90
4687;DHT22;2357;47.316;-1.348;2023-03-01T15:48:00;15.80;99.90
4687;DHT22;2357;47.316;-1.348;2023-03-01T15:52:56;15.40;99.90
4687;DHT22;2357;47.316;-1.348;2023-03-01T15:55:28;14.70;99.90
4687;DHT22;2357;47.316;-1.348;2023-03-01T15:58:09;14.40;99.90
4687;DHT22;2357;47.316;-1.348;2023-03-01T16:00:35;13.50;99.90
4687;DHT22;2357;47.316;-1.348;2023-03-01T16:03:01;13.50;99.90
4687;DHT22;2357;47.316;-1.348;2023-03-01T16:05:31;13.10;99.90
4687;DHT22;2357;47.316;-1.348;2023-03-01T16:07:57;12.50;99.90
4687;DHT22;2357;47.316;-1.348;2023-03-01T16:10:23;12.10;99.90
4687;DHT22;2357;47.316;-1.348;2023-03-01T16:12:50;12.20;99.90
4687;DHT22;2357;47.316;-1.348;2023-03-01T16:17:48;11.90;99.90
4687;DHT22;2357;47.316;-1.348;2023-03-01T16:20:14;11.40;99.90
4687;DHT22;2357;47.316;-1.348;2023-03-01T16:22:42;11.10;99.90
4687;DHT22;2357;47.316;-1.348;2023-03-01T16:25:10;11.10;99.90
4687;DHT22;2357;47.316;-1.348;2023-03-01T16:27:36;11.00;99.90
4687;DHT22;2357;47.316;-1.348;2023-03-01T16:30:01;12.30;99.90
4687;DHT22;2357;47.316;-1.348;2023-03-01T16:32:27;14.40;99.90
4687;DHT22;2357;47.316;-1.348;2023-03-01T16:34:53;15.40;99.90
4687;DHT22;2357;47.316;-1.348;2023-03-01T16:37:18;15.00;99.90
4687;DHT22;2357;47.316;-1.348;2023-03-01T16:39:44;13.30;99.90
4687;DHT22;2357;47.316;-1.348;2023-03-01T16:42:10;12.10;99.90
4687;DHT22;2357;47.316;-1.348;2023-03-01T16:44:35;11.30;99.90
4687;DHT22;2357;47.316;-1.348;2023-03-01T16:47:01;10.80;99.90
4687;DHT22;2357;47.316;-1.348;2023-03-01T16:49:27;10.30;99.90
4687;DHT22;2357;47.316;-1.348;2023-03-01T16:51:53;10.10;99.90
4687;DHT22;2357;47.316;-1.348;2023-03-01T16:54:19;9.90;99.90
4687;DHT22;2357;47.316;-1.348;2023-03-01T16:56:45;9.80;99.90
4687;DHT22;2357;47.316;-1.348;2023-03-01T16:59:10;9.70;99.90
4687;DHT22;2357;47.316;-1.348;2023-03-01T17:01:36;9.60;99.90
4687;DHT22;2357;47.316;-1.348;2023-03-01T17:04:08;9.50;99.90
4687;DHT22;2357;47.316;-1.348;2023-03-01T17:06:35;9.40;99.90
4687;DHT22;2357;47.316;-1.348;2023-03-01T17:09:01;9.30;99.90
4687;DHT22;2357;47.316;-1.348;2023-03-01T17:11:27;9.20;99.90
4687;DHT22;2357;47.316;-1.348;2023-03-01T17:13:53;9.20;99.90
4687;DHT22;2357;47.316;-1.348;2023-03-01T17:16:19;9.10;99.90
4687;DHT22;2357;47.316;-1.348;2023-03-01T17:18:45;9.10;99.90
4687;DHT22;2357;47.316;-1.348;2023-03-01T17:21:12;9.10;99.90
4687;DHT22;2357;47.316;-1.348;2023-03-01T17:23:40;9.00;99.90
4687;DHT22;2357;47.316;-1.348;2023-03-01T17:26:07;9.00;99.90
4687;DHT22;2357;47.316;-1.348;2023-03-01T17:28:34;8.90;99.90
4687;DHT22;2357;47.316;-1.348;2023-03-01T17:31:01;8.90;99.90
4687;DHT22;2357;47.316;-1.348;2023-03-01T17:33:27;8.90;99.90
4687;DHT22;2357;47.316;-1.348;2023-03-01T17:35:55;8.80;99.90
4687;DHT22;2357;47.316;-1.348;2023-03-01T17:38:21;8.70;99.90
4687;DHT22;2357;47.316;-1.348;2023-03-01T17:40:46;8.80;99.90
4687;DHT22;2357;47.316;-1.348;2023-03-01T17:43:13;8.50;99.90
4687;DHT22;2357;47.316;-1.348;2023-03-01T17:45:39;8.60;99.90
4687;DHT22;2357;47.316;-1.348;2023-03-01T17:48:06;8.50;99.90
4687;DHT22;2357;47.316;-1.348;2023-03-01T17:50:32;8.40;99.90
4687;DHT22;2357;47.316;-1.348;2023-03-01T17:52:58;8.30;99.90
4687;DHT22;2357;47.316;-1.348;2023-03-01T17:55:24;8.20;99.90
4687;DHT22;2357;47.316;-1.348;2023-03-01T17:57:50;8.20;99.90
4687;DHT22;2357;47.316;-1.348;2023-03-01T18:00:16;8.20;99.90
4687;DHT22;2357;47.316;-1.348;2023-03-01T18:02:42;8.10;99.90
4687;DHT22;2357;47.316;-1.348;2023-03-01T18:05:09;8.10;99.90
4687;DHT22;2357;47.316;-1.348;2023-03-01T18:07:35;8.10;99.90
4687;DHT22;2357;47.316;-1.348;2023-03-01T18:10:01;8.00;99.90
4687;DHT22;2357;47.316;-1.348;2023-03-01T18:12:26;8.00;99.90
4687;DHT22;2357;47.316;-1.348;2023-03-01T18:14:52;8.00;99.90
4687;DHT22;2357;47.316;-1.348;2023-03-01T18:17:19;7.90;99.90
4687;DHT22;2357;47.316;-1.348;2023-03-01T18:19:45;7.80;99.90
4687;DHT22;2357;47.316;-1.348;2023-03-01T18:22:10;7.80;99.90
4687;DHT22;2357;47.316;-1.348;2023-03-01T18:24:37;7.80;99.90
4687;DHT22;2357;47.316;-1.348;2023-03-01T18:27:03;7.70;99.90